Time;durP1;ratioP1;P1;durP2;ratioP2;P2;SDS_P1;SDS_P2;PMS_P1;PMS_P2;Temp;Humidity;BMP_temperature;BMP_pressure;BME280_temperature;BME280_humidity;BME280_pressure;Samples;Min_cycle;Max_cycle;Signal;HPM_P1;HPM_P2
2023/11/21 00:00:27;;;;;;;74.63;66.70;;;;;;;;;;4991480;28;25112;-72
2023/11/21 00:02:53;;;;;;;75.60;65.97;;;;;;;;;;4992838;28;25065;-72
2023/11/21 00:05:19;;;;;;;73.00;65.85;;;;;;;;;;4992241;28;25057;-72
2023/11/21 00:07:45;;;;;;;73.28;65.60;;;;;;;;;;4987544;28;25070;-72
2023/11/21 00:10:14;;;;;;;73.57;65.75;;;;;;;;;;4994594;28;25077;-72
2023/11/21 00:12:41;;;;;;;70.97;63.50;;;;;;;;;;4989826;28;25125;-73
2023/11/21 00:15:11;;;;;;;79.78;69.13;;;;;;;;;;4991157;28;25076;-73
2023/11/21 00:17:37;;;;;;;74.30;66.70;;;;;;;;;;4991040;28;25093;-72
2023/11/21 00:20:06;;;;;;;77.57;69.25;;;;;;;;;;4991740;28;25049;-73
2023/11/21 00:22:32;;;;;;;75.43;67.32;;;;;;;;;;4991445;28;25092;-71
2023/11/21 00:24:58;;;;;;;73.85;66.07;;;;;;;;;;4992145;28;25147;-71
2023/11/21 00:27:24;;;;;;;77.18;68.68;;;;;;;;;;4999907;28;25073;-72
2023/11/21 00:29:50;;;;;;;82.05;69.60;;;;;;;;;;5002700;28;25065;-71
2023/11/21 00:32:16;;;;;;;77.22;69.07;;;;;;;;;;5006853;28;25083;-73
2023/11/21 00:34:42;;;;;;;84.97;70.47;;;;;;;;;;5007785;28;25067;-72
2023/11/21 00:37:08;;;;;;;96.70;73.22;;;;;;;;;;5006325;28;25125;-72
2023/11/21 00:39:35;;;;;;;77.38;68.50;;;;;;;;;;5000399;28;25085;-73
2023/11/21 00:42:01;;;;;;;79.10;67.85;;;;;;;;;;4995419;28;25135;-72
2023/11/21 00:44:30;;;;;;;71.75;64.28;;;;;;;;;;4990451;28;25053;-73
2023/11/21 00:46:56;;;;;;;67.80;60.53;;;;;;;;;;4991824;28;25069;-74
2023/11/21 00:49:22;;;;;;;75.88;61.08;;;;;;;;;;4994070;28;25099;-72
2023/11/21 00:51:48;;;;;;;73.60;60.38;;;;;;;;;;4992641;28;25048;-73
2023/11/21 00:54:13;;;;;;;71.18;60.70;;;;;;;;;;4990682;28;25121;-73
2023/11/21 00:56:40;;;;;;;72.03;56.67;;;;;;;;;;4990186;28;25112;-73
2023/11/21 00:59:06;;;;;;;72.43;60.03;;;;;;;;;;4991909;28;25118;-72
2023/11/21 01:01:32;;;;;;;67.47;56.88;;;;;;;;;;4986266;28;25125;-73
2023/11/21 01:03:58;;;;;;;62.47;55.92;;;;;;;;;;4989351;28;25055;-74
2023/11/21 01:06:24;;;;;;;60.17;53.58;;;;;;;;;;4990822;28;25093;-72
2023/11/21 01:08:50;;;;;;;64.78;53.15;;;;;;;;;;4988875;28;25100;-72
2023/11/21 01:11:17;;;;;;;62.25;51.88;;;;;;;;;;4995292;28;25090;-72
2023/11/21 01:13:44;;;;;;;64.53;54.17;;;;;;;;;;4987343;28;25163;-73
2023/11/21 01:16:11;;;;;;;61.67;55.00;;;;;;;;;;4989555;28;25078;-72
2023/11/21 01:18:37;;;;;;;72.30;58.55;;;;;;;;;;4989731;28;25121;-72
2023/11/21 01:21:03;;;;;;;72.03;58.00;;;;;;;;;;4990958;28;25054;-72
2023/11/21 01:23:29;;;;;;;71.35;56.25;;;;;;;;;;4987844;28;25059;-72
2023/11/21 01:25:59;;;;;;;62.75;55.97;;;;;;;;;;4989818;28;25079;-73
2023/11/21 01:28:26;;;;;;;60.38;54.45;;;;;;;;;;4989872;28;25098;-73
2023/11/21 01:30:56;;;;;;;62.90;56.75;;;;;;;;;;4986014;28;25058;-73
2023/11/21 01:33:22;;;;;;;65.85;57.63;;;;;;;;;;4992869;28;25052;-72
2023/11/21 01:35:48;;;;;;;61.10;54.65;;;;;;;;;;4990405;28;25048;-72
2023/11/21 01:38:15;;;;;;;60.38;53.92;;;;;;;;;;4988498;28;25055;-71
2023/11/21 01:40:41;;;;;;;56.78;51.03;;;;;;;;;;4987807;28;25113;-71
2023/11/21 01:43:08;;;;;;;61.03;53.65;;;;;;;;;;4989399;28;25138;-72
2023/11/21 01:45:34;;;;;;;68.18;56.60;;;;;;;;;;4990165;28;25049;-71
2023/11/21 01:48:01;;;;;;;64.90;56.03;;;;;;;;;;4993077;28;25091;-72
2023/11/21 01:50:27;;;;;;;70.30;53.47;;;;;;;;;;4993363;28;25059;-71
2023/11/21 01:52:54;;;;;;;60.67;54.13;;;;;;;;;;4990702;28;25153;-73
2023/11/21 01:55:20;;;;;;;59.13;47.95;;;;;;;;;;4991517;28;25080;-69
2023/11/21 01:57:46;;;;;;;56.00;49.22;;;;;;;;;;4989733;28;25062;-73
2023/11/21 02:00:16;;;;;;;56.17;48.70;;;;;;;;;;4987365;28;25131;-72
2023/11/21 02:02:45;;;;;;;49.67;44.28;;;;;;;;;;4993006;28;25093;-72
2023/11/21 02:05:15;;;;;;;50.67;45.08;;;;;;;;;;4982970;28;25112;-72
2023/11/21 02:07:42;;;;;;;51.35;46.05;;;;;;;;;;4990003;28;25163;-73
2023/11/21 02:10:08;;;;;;;53.78;43.10;;;;;;;;;;4990640;28;25058;-72
2023/11/21 02:12:35;;;;;;;46.83;41.80;;;;;;;;;;4986618;28;25098;-71
2023/11/21 02:15:14;;;;;;;55.97;45.67;;;;;;;;;;4988151;28;25071;-71
2023/11/21 02:17:40;;;;;;;49.72;44.35;;;;;;;;;;4985817;28;25073;-73
2023/11/21 02:20:06;;;;;;;50.28;44.53;;;;;;;;;;4992789;28;25059;-72
2023/11/21 02:22:35;;;;;;;56.47;46.35;;;;;;;;;;4989621;28;25066;-73
2023/11/21 02:25:02;;;;;;;53.50;42.25;;;;;;;;;;4997031;28;25134;-73
2023/11/21 02:27:28;;;;;;;47.03;42.15;;;;;;;;;;4994948;28;25083;-72
2023/11/21 02:29:54;;;;;;;48.92;43.53;;;;;;;;;;4996722;28;25073;-71
2023/11/21 02:32:22;;;;;;;47.17;40.35;;;;;;;;;;4989372;28;25092;-72
2023/11/21 02:34:48;;;;;;;45.80;38.78;;;;;;;;;;4986288;28;25058;-73
2023/11/21 02:37:15;;;;;;;50.92;42.03;;;;;;;;;;4979249;28;25128;-72
2023/11/21 02:39:41;;;;;;;51.53;45.47;;;;;;;;;;4992151;28;25067;-73
2023/11/21 02:42:07;;;;;;;57.42;51.17;;;;;;;;;;4988102;28;25157;-72
2023/11/21 02:44:34;;;;;;;59.30;50.50;;;;;;;;;;4982473;28;25083;-71
2023/11/21 02:47:00;;;;;;;55.03;49.53;;;;;;;;;;4987943;28;25076;-73
2023/11/21 02:49:28;;;;;;;55.28;49.67;;;;;;;;;;4987733;28;25077;-73
2023/11/21 02:51:55;;;;;;;56.53;50.95;;;;;;;;;;4994895;28;25092;-71
2023/11/21 02:54:24;;;;;;;62.80;52.85;;;;;;;;;;4991982;28;25102;-72
2023/11/21 02:56:50;;;;;;;62.72;56.28;;;;;;;;;;4995708;28;25040;-73
2023/11/21 02:59:16;;;;;;;69.00;61.35;;;;;;;;;;4992919;28;25076;-73
2023/11/21 03:01:42;;;;;;;63.65;57.08;;;;;;;;;;4991695;28;25059;-72
2023/11/21 03:04:08;;;;;;;66.90;60.20;;;;;;;;;;4995009;28;25074;-73
2023/11/21 03:06:34;;;;;;;71.60;64.47;;;;;;;;;;4994623;28;25065;-71
2023/11/21 03:09:00;;;;;;;70.32;63.22;;;;;;;;;;4991770;28;25069;-74
2023/11/21 03:11:29;;;;;;;67.43;60.95;;;;;;;;;;4992361;28;25075;-71
2023/11/21 03:13:55;;;;;;;68.32;61.95;;;;;;;;;;4991222;28;25153;-73
2023/11/21 03:16:21;;;;;;;67.45;60.72;;;;;;;;;;4991299;28;25070;-70
2023/11/21 03:18:47;;;;;;;66.53;59.88;;;;;;;;;;4999004;28;25063;-74
2023/11/21 03:21:13;;;;;;;63.00;56.97;;;;;;;;;;4993828;28;25100;-72
2023/11/21 03:23:39;;;;;;;62.50;55.80;;;;;;;;;;4991987;28;25146;-72
2023/11/21 03:26:08;;;;;;;60.42;53.75;;;;;;;;;;4996371;28;25114;-71
2023/11/21 03:28:34;;;;;;;61.72;53.17;;;;;;;;;;4988877;28;25097;-73
2023/11/21 03:31:00;;;;;;;57.72;52.03;;;;;;;;;;4995191;28;25179;-73
2023/11/21 03:33:29;;;;;;;55.75;50.15;;;;;;;;;;4991140;28;25097;-72
2023/11/21 03:35:55;;;;;;;54.92;49.50;;;;;;;;;;5007751;28;25057;-73
2023/11/21 03:38:21;;;;;;;54.15;48.42;;;;;;;;;;4984718;28;25106;-72
2023/11/21 03:40:47;;;;;;;53.42;47.72;;;;;;;;;;4992782;28;25058;-73
2023/11/21 03:43:14;;;;;;;48.08;43.53;;;;;;;;;;4993629;28;25060;-72
2023/11/21 03:45:40;;;;;;;46.47;41.55;;;;;;;;;;4992660;28;25050;-73
2023/11/21 03:48:07;;;;;;;49.60;44.15;;;;;;;;;;4989145;28;25080;-74
2023/11/21 03:50:33;;;;;;;51.95;46.08;;;;;;;;;;4991261;28;25079;-72
2023/11/21 03:52:59;;;;;;;54.83;49.70;;;;;;;;;;4987187;28;25135;-74
2023/11/21 03:55:25;;;;;;;57.38;51.72;;;;;;;;;;4992890;28;25098;-73
2023/11/21 03:57:51;;;;;;;56.53;51.45;;;;;;;;;;4991301;28;25107;-73
2023/11/21 04:00:17;;;;;;;61.65;56.15;;;;;;;;;;4987812;28;25087;-72
2023/11/21 04:02:43;;;;;;;61.25;55.90;;;;;;;;;;4995526;28;25148;-71
2023/11/21 04:05:09;;;;;;;69.28;62.08;;;;;;;;;;4989990;28;25061;-71
2023/11/21 04:07:38;;;;;;;69.22;63.22;;;;;;;;;;5002362;28;25076;-71
2023/11/21 04:10:07;;;;;;;71.88;65.50;;;;;;;;;;5008669;28;25080;-72
2023/11/21 04:12:33;;;;;;;72.65;65.70;;;;;;;;;;5000851;28;25057;-72
2023/11/21 04:14:59;;;;;;;69.85;63.83;;;;;;;;;;5006108;28;25089;-73
2023/11/21 04:17:25;;;;;;;72.70;66.40;;;;;;;;;;5005858;28;25071;-72
2023/11/21 04:19:51;;;;;;;76.82;70.53;;;;;;;;;;5009940;28;25077;-72
2023/11/21 04:22:17;;;;;;;74.97;69.13;;;;;;;;;;5005322;28;25054;-72
2023/11/21 04:24:43;;;;;;;74.53;67.75;;;;;;;;;;5002285;28;25068;-72
2023/11/21 04:27:09;;;;;;;77.03;70.15;;;;;;;;;;5002748;28;25113;-72
2023/11/21 04:29:35;;;;;;;74.88;68.68;;;;;;;;;;4990168;28;25064;-72
2023/11/21 04:32:02;;;;;;;79.18;72.45;;;;;;;;;;4986828;28;25136;-71
2023/11/21 04:34:30;;;;;;;79.45;73.10;;;;;;;;;;4993911;28;25052;-72
2023/11/21 04:36:56;;;;;;;79.07;72.20;;;;;;;;;;4992339;28;25079;-72
2023/11/21 04:39:23;;;;;;;80.43;73.93;;;;;;;;;;4991467;28;25151;-71
2023/11/21 04:41:49;;;;;;;81.20;74.70;;;;;;;;;;4992425;28;25127;-71
2023/11/21 04:44:16;;;;;;;84.82;77.72;;;;;;;;;;4988039;28;25062;-71
2023/11/21 04:46:42;;;;;;;82.82;75.95;;;;;;;;;;4987871;28;25092;-71
2023/11/21 04:49:08;;;;;;;85.22;78.03;;;;;;;;;;4992327;28;25089;-71
2023/11/21 04:51:34;;;;;;;95.30;87.07;;;;;;;;;;4989636;28;25078;-72
2023/11/21 04:54:00;;;;;;;94.30;86.50;;;;;;;;;;4991218;28;25057;-74
2023/11/21 04:56:29;;;;;;;94.25;86.80;;;;;;;;;;4990303;28;25064;-71
2023/11/21 04:58:55;;;;;;;96.38;88.43;;;;;;;;;;4989829;28;25070;-73
2023/11/21 05:01:21;;;;;;;98.22;90.40;;;;;;;;;;4989872;28;25135;-72
2023/11/21 05:03:48;;;;;;;98.25;89.88;;;;;;;;;;4989998;28;25063;-71
2023/11/21 05:06:14;;;;;;;105.32;96.45;;;;;;;;;;4989716;28;25092;-73
2023/11/21 05:08:40;;;;;;;105.75;97.35;;;;;;;;;;4990194;28;25095;-71
2023/11/21 05:11:07;;;;;;;108.97;100.32;;;;;;;;;;4988143;28;25055;-72
2023/11/21 05:13:34;;;;;;;108.82;100.40;;;;;;;;;;4991612;28;25047;-72
2023/11/21 05:16:03;;;;;;;112.70;102.75;;;;;;;;;;4987455;28;25074;-71
2023/11/21 05:18:29;;;;;;;114.35;104.88;;;;;;;;;;4985178;28;25061;-72
2023/11/21 05:20:56;;;;;;;112.45;103.38;;;;;;;;;;4989322;28;25131;-72
2023/11/21 05:23:22;;;;;;;114.60;105.50;;;;;;;;;;4980135;28;25068;-73
2023/11/21 05:25:48;;;;;;;107.13;98.07;;;;;;;;;;4989534;28;25075;-71
2023/11/21 05:28:14;;;;;;;105.15;96.22;;;;;;;;;;4989980;28;25063;-73
2023/11/21 05:30:40;;;;;;;101.68;93.75;;;;;;;;;;4992031;28;25128;-71
2023/11/21 05:33:06;;;;;;;103.05;94.85;;;;;;;;;;5000004;28;25139;-71
2023/11/21 05:35:32;;;;;;;104.03;95.40;;;;;;;;;;4985233;28;25091;-71
2023/11/21 05:37:58;;;;;;;102.03;93.75;;;;;;;;;;4989303;28;25148;-74
2023/11/21 05:40:26;;;;;;;105.15;96.55;;;;;;;;;;4985125;28;25145;-73
2023/11/21 05:42:52;;;;;;;111.68;102.57;;;;;;;;;;4988523;28;25070;-71
2023/11/21 05:45:19;;;;;;;108.93;100.32;;;;;;;;;;4986543;28;25059;-70
2023/11/21 05:47:46;;;;;;;113.05;104.10;;;;;;;;;;4983603;28;25115;-71
2023/11/21 05:50:14;;;;;;;107.32;98.55;;;;;;;;;;4987428;28;25106;-71
2023/11/21 05:52:42;;;;;;;111.55;102.03;;;;;;;;;;4989881;28;25123;-71
2023/11/21 05:55:08;;;;;;;110.25;100.78;;;;;;;;;;4987947;28;25063;-72
2023/11/21 05:57:38;;;;;;;114.65;106.00;;;;;;;;;;4988690;28;25055;-72
2023/11/21 06:00:12;;;;;;;109.80;101.22;;;;;;;;;;4987562;28;25077;-72
2023/11/21 06:02:39;;;;;;;102.38;94.22;;;;;;;;;;4982069;28;25063;-72
2023/11/21 06:05:05;;;;;;;94.63;85.47;;;;;;;;;;4986729;28;25083;-73
2023/11/21 06:07:31;;;;;;;114.10;104.78;;;;;;;;;;4983465;28;25056;-70
2023/11/21 06:09:57;;;;;;;144.63;133.15;;;;;;;;;;4984294;28;25072;-71
2023/11/21 06:12:23;;;;;;;133.02;121.70;;;;;;;;;;4985728;28;25066;-71
2023/11/21 06:14:49;;;;;;;134.23;123.30;;;;;;;;;;4982967;28;25097;-69
2023/11/21 06:17:15;;;;;;;137.32;125.72;;;;;;;;;;4980451;28;25063;-71
2023/11/21 06:19:41;;;;;;;132.45;120.75;;;;;;;;;;4975951;28;25056;-70
2023/11/21 06:22:08;;;;;;;125.35;114.97;;;;;;;;;;4984685;28;25074;-72
2023/11/21 06:24:33;;;;;;;124.65;114.03;;;;;;;;;;4983718;28;25107;-71
2023/11/21 06:26:59;;;;;;;121.10;110.63;;;;;;;;;;4984973;28;25101;-72
2023/11/21 06:29:26;;;;;;;123.38;112.28;;;;;;;;;;4990347;28;25065;-70
2023/11/21 06:31:55;;;;;;;128.18;116.00;;;;;;;;;;4984612;28;25059;-73
2023/11/21 06:34:21;;;;;;;134.15;122.10;;;;;;;;;;4986464;28;25071;-72
2023/11/21 06:36:47;;;;;;;128.07;117.30;;;;;;;;;;4986202;28;25088;-72
2023/11/21 06:39:15;;;;;;;125.28;115.43;;;;;;;;;;4978704;28;25089;-72
2023/11/21 06:41:41;;;;;;;130.48;118.55;;;;;;;;;;4983898;28;25069;-69
2023/11/21 06:44:08;;;;;;;125.10;113.80;;;;;;;;;;4984411;28;25139;-70
2023/11/21 06:46:34;;;;;;;129.50;118.10;;;;;;;;;;4983842;28;25153;-72
2023/11/21 06:49:00;;;;;;;126.60;115.38;;;;;;;;;;4983279;28;25089;-71
2023/11/21 06:51:26;;;;;;;122.97;112.80;;;;;;;;;;4976612;28;25103;-72
2023/11/21 06:53:52;;;;;;;125.78;115.22;;;;;;;;;;4981440;28;25075;-72
2023/11/21 06:56:19;;;;;;;125.40;114.47;;;;;;;;;;4984892;28;25092;-73
2023/11/21 06:58:46;;;;;;;122.07;111.68;;;;;;;;;;4982714;28;25053;-72
2023/11/21 07:01:13;;;;;;;125.93;115.22;;;;;;;;;;4978575;28;25093;-72
2023/11/21 07:03:39;;;;;;;126.93;115.70;;;;;;;;;;4985328;28;25065;-71
2023/11/21 07:06:05;;;;;;;123.85;112.95;;;;;;;;;;4985112;28;25077;-72
2023/11/21 07:08:31;;;;;;;121.88;111.72;;;;;;;;;;4986034;28;25049;-71
2023/11/21 07:10:57;;;;;;;127.85;116.20;;;;;;;;;;4985334;28;25150;-72
2023/11/21 07:13:23;;;;;;;127.82;117.70;;;;;;;;;;4984836;28;25071;-71
2023/11/21 07:15:49;;;;;;;122.22;111.55;;;;;;;;;;4984186;28;25122;-71
2023/11/21 07:18:15;;;;;;;121.70;110.95;;;;;;;;;;4983513;28;25077;-72
2023/11/21 07:20:41;;;;;;;117.22;106.25;;;;;;;;;;4980754;28;25067;-72
2023/11/21 07:23:07;;;;;;;118.47;108.07;;;;;;;;;;4982901;28;25077;-72
2023/11/21 07:25:33;;;;;;;124.22;112.20;;;;;;;;;;4982968;28;25107;-72
2023/11/21 07:28:00;;;;;;;114.28;103.72;;;;;;;;;;4985821;28;25101;-71
2023/11/21 07:30:27;;;;;;;111.78;101.22;;;;;;;;;;4985008;28;25141;-71
2023/11/21 07:32:53;;;;;;;108.47;98.88;;;;;;;;;;4987585;28;25118;-72
2023/11/21 07:35:18;;;;;;;108.43;98.32;;;;;;;;;;4983771;28;25058;-72
2023/11/21 07:37:44;;;;;;;104.97;94.22;;;;;;;;;;4982647;28;25064;-75
2023/11/21 07:40:11;;;;;;;103.25;92.25;;;;;;;;;;4987108;28;25188;-73
2023/11/21 07:42:37;;;;;;;100.70;90.68;;;;;;;;;;4988261;28;25141;-74
2023/11/21 07:45:04;;;;;;;105.55;94.82;;;;;;;;;;4988866;28;25134;-71
2023/11/21 07:47:30;;;;;;;100.13;90.50;;;;;;;;;;4981824;28;25092;-72
2023/11/21 07:49:56;;;;;;;105.25;94.30;;;;;;;;;;4986307;28;25107;-71
2023/11/21 07:52:22;;;;;;;102.57;92.30;;;;;;;;;;4979967;28;25068;-73
2023/11/21 07:54:48;;;;;;;103.25;93.35;;;;;;;;;;4976077;28;25049;-70
2023/11/21 07:57:14;;;;;;;95.30;84.97;;;;;;;;;;4987076;28;25077;-70
2023/11/21 07:59:41;;;;;;;94.30;85.40;;;;;;;;;;4982574;28;25063;-71
2023/11/21 08:02:07;;;;;;;91.78;82.95;;;;;;;;;;4989106;28;25068;-71
2023/11/21 08:04:35;;;;;;;93.68;84.88;;;;;;;;;;4988828;28;25066;-71
2023/11/21 08:07:01;;;;;;;96.53;88.10;;;;;;;;;;4989427;28;25061;-70
2023/11/21 08:09:27;;;;;;;107.40;97.82;;;;;;;;;;4994159;28;25051;-71
2023/11/21 08:11:53;;;;;;;96.40;87.78;;;;;;;;;;4993272;28;25063;-71
2023/11/21 08:14:20;;;;;;;94.28;85.45;;;;;;;;;;4993820;28;25084;-71
2023/11/21 08:16:46;;;;;;;88.25;80.13;;;;;;;;;;4997734;28;25060;-71
2023/11/21 08:19:12;;;;;;;88.93;80.75;;;;;;;;;;4991871;28;25066;-70
2023/11/21 08:21:38;;;;;;;87.55;80.00;;;;;;;;;;4989840;28;25121;-71
2023/11/21 08:24:05;;;;;;;83.47;75.72;;;;;;;;;;4987924;28;25079;-71
2023/11/21 08:26:31;;;;;;;78.45;71.22;;;;;;;;;;4988976;28;25066;-71
2023/11/21 08:28:57;;;;;;;78.93;71.28;;;;;;;;;;4987905;28;25081;-71
2023/11/21 08:31:26;;;;;;;81.60;72.88;;;;;;;;;;4982404;28;25083;-70
2023/11/21 08:33:55;;;;;;;80.53;72.30;;;;;;;;;;4986221;28;25104;-71
2023/11/21 08:36:23;;;;;;;77.50;70.13;;;;;;;;;;4985810;28;25071;-71
2023/11/21 08:38:49;;;;;;;78.90;70.85;;;;;;;;;;4981979;28;25097;-72
2023/11/21 08:41:15;;;;;;;73.93;66.13;;;;;;;;;;4989228;28;25079;-71
2023/11/21 08:43:42;;;;;;;79.25;71.00;;;;;;;;;;4987234;28;25113;-71
2023/11/21 08:46:11;;;;;;;77.50;70.28;;;;;;;;;;4986585;28;25043;-71
2023/11/21 08:48:37;;;;;;;66.57;59.85;;;;;;;;;;4990932;28;25060;-71
2023/11/21 08:51:04;;;;;;;65.35;58.90;;;;;;;;;;4988192;28;25078;-70
2023/11/21 08:53:30;;;;;;;62.47;56.10;;;;;;;;;;4987441;28;25164;-71
2023/11/21 08:55:57;;;;;;;64.55;57.92;;;;;;;;;;4991536;28;25083;-72
2023/11/21 08:58:23;;;;;;;61.28;55.03;;;;;;;;;;4987067;28;25061;-71
2023/11/21 09:00:49;;;;;;;64.68;57.80;;;;;;;;;;4987273;28;25091;-71
2023/11/21 09:03:15;;;;;;;66.65;59.53;;;;;;;;;;4985420;28;25155;-70
2023/11/21 09:05:41;;;;;;;67.97;60.65;;;;;;;;;;4985356;28;25074;-71
2023/11/21 09:08:07;;;;;;;68.50;61.63;;;;;;;;;;4986547;28;25050;-71
2023/11/21 09:10:36;;;;;;;71.00;57.08;;;;;;;;;;4985580;28;25114;-70
2023/11/21 09:13:02;;;;;;;66.18;57.33;;;;;;;;;;4984431;28;25051;-71
2023/11/21 09:15:28;;;;;;;65.80;57.25;;;;;;;;;;4985697;28;25079;-71
2023/11/21 09:17:54;;;;;;;62.58;54.72;;;;;;;;;;4984306;28;25075;-70
2023/11/21 09:20:22;;;;;;;69.18;54.60;;;;;;;;;;4984966;28;25062;-71
2023/11/21 09:22:48;;;;;;;66.32;55.30;;;;;;;;;;4985025;28;25051;-70
2023/11/21 09:25:15;;;;;;;63.22;55.60;;;;;;;;;;4988453;28;25068;-70
2023/11/21 09:27:41;;;;;;;63.55;53.63;;;;;;;;;;4985900;28;25134;-70
2023/11/21 09:30:10;;;;;;;61.83;52.28;;;;;;;;;;4982571;28;25112;-70
2023/11/21 09:32:38;;;;;;;58.60;49.80;;;;;;;;;;4983021;28;25109;-69
2023/11/21 09:35:05;;;;;;;60.40;53.88;;;;;;;;;;4984850;28;25064;-71
2023/11/21 09:37:31;;;;;;;57.58;50.58;;;;;;;;;;4986748;28;25067;-72
2023/11/21 09:39:57;;;;;;;62.42;50.40;;;;;;;;;;4985868;28;25185;-71
2023/11/21 09:42:30;;;;;;;61.38;54.55;;;;;;;;;;4984876;28;25054;-70
2023/11/21 09:45:15;;;;;;;58.15;52.05;;;;;;;;;;4984799;28;25072;-70
2023/11/21 09:47:42;;;;;;;60.20;50.50;;;;;;;;;;4982056;28;25127;-70
2023/11/21 09:50:10;;;;;;;61.58;51.30;;;;;;;;;;4985730;28;25077;-71
2023/11/21 09:53:00;;;;;;;54.63;48.72;;;;;;;;;;4983601;28;25067;-71
2023/11/21 09:55:29;;;;;;;59.15;49.85;;;;;;;;;;4980409;28;25091;-70
2023/11/21 09:57:56;;;;;;;57.60;50.75;;;;;;;;;;4989588;28;25054;-69
2023/11/21 10:00:23;;;;;;;56.22;46.85;;;;;;;;;;4988578;28;25059;-69
2023/11/21 10:02:50;;;;;;;57.75;48.28;;;;;;;;;;4986424;28;25057;-70
2023/11/21 10:05:17;;;;;;;53.33;47.53;;;;;;;;;;4985905;28;25100;-70
2023/11/21 10:07:44;;;;;;;54.33;46.55;;;;;;;;;;4992988;28;25149;-72
2023/11/21 10:10:11;;;;;;;53.75;45.22;;;;;;;;;;4991091;28;25143;-70
2023/11/21 10:12:38;;;;;;;50.72;44.65;;;;;;;;;;4987651;28;25050;-71
2023/11/21 10:15:08;;;;;;;54.25;44.10;;;;;;;;;;4988438;28;25144;-72
2023/11/21 10:17:42;;;;;;;45.17;40.35;;;;;;;;;;4990702;28;25066;-70
2023/11/21 10:20:11;;;;;;;46.95;42.22;;;;;;;;;;4987113;28;25145;-73
2023/11/21 10:22:38;;;;;;;44.47;40.17;;;;;;;;;;4984735;28;25075;-71
2023/11/21 10:25:07;;;;;;;45.33;40.95;;;;;;;;;;4982346;28;25089;-69
2023/11/21 10:27:33;;;;;;;44.65;40.25;;;;;;;;;;4985515;28;25079;-70
2023/11/21 10:30:01;;;;;;;46.47;42.13;;;;;;;;;;4982649;28;25066;-72
2023/11/21 10:32:32;;;;;;;44.60;40.30;;;;;;;;;;4986036;28;25054;-74
2023/11/21 10:35:06;;;;;;;43.20;39.00;;;;;;;;;;4986459;28;25138;-70
2023/11/21 10:37:32;;;;;;;45.28;40.58;;;;;;;;;;4984219;28;25071;-71
2023/11/21 10:40:01;;;;;;;44.65;40.30;;;;;;;;;;4986624;28;25067;-71
2023/11/21 10:42:28;;;;;;;45.55;40.67;;;;;;;;;;4985147;28;25070;-71
2023/11/21 10:44:54;;;;;;;44.80;39.90;;;;;;;;;;4986042;28;25075;-74
2023/11/21 10:47:22;;;;;;;47.10;41.92;;;;;;;;;;4983060;28;25076;-71
2023/11/21 10:49:53;;;;;;;48.83;41.15;;;;;;;;;;4986288;28;25112;-71
2023/11/21 10:52:19;;;;;;;46.05;41.00;;;;;;;;;;4982462;28;25079;-71
2023/11/21 10:54:46;;;;;;;48.65;43.55;;;;;;;;;;4985267;28;25070;-72
2023/11/21 10:57:15;;;;;;;45.60;40.95;;;;;;;;;;4986887;28;25141;-70
2023/11/21 10:59:41;;;;;;;47.05;42.35;;;;;;;;;;4985504;28;25051;-72
2023/11/21 11:02:21;;;;;;;45.33;40.85;;;;;;;;;;4985641;28;25071;-71
2023/11/21 11:04:47;;;;;;;44.47;40.58;;;;;;;;;;4985237;28;25051;-72
2023/11/21 11:07:13;;;;;;;44.03;39.83;;;;;;;;;;4986434;28;25129;-70
2023/11/21 11:09:39;;;;;;;44.38;40.13;;;;;;;;;;4986273;28;25101;-70
2023/11/21 11:12:06;;;;;;;43.95;39.72;;;;;;;;;;4989422;28;25164;-70
2023/11/21 11:14:33;;;;;;;42.47;38.45;;;;;;;;;;4993732;28;25061;-72
2023/11/21 11:17:00;;;;;;;43.47;39.63;;;;;;;;;;4995109;28;25069;-70
2023/11/21 11:19:26;;;;;;;42.42;38.63;;;;;;;;;;4993813;28;25151;-73
2023/11/21 11:21:58;;;;;;;44.60;40.42;;;;;;;;;;4990841;28;25150;-72
2023/11/21 11:24:37;;;;;;;45.10;41.00;;;;;;;;;;4991075;28;25079;-72
2023/11/21 11:27:22;;;;;;;44.70;40.47;;;;;;;;;;4998037;28;25072;-71
2023/11/21 11:29:58;;;;;;;45.28;40.67;;;;;;;;;;4989382;28;25065;-70
2023/11/21 11:32:24;;;;;;;44.50;40.08;;;;;;;;;;4988738;28;25048;-70
2023/11/21 11:34:57;;;;;;;44.50;40.10;;;;;;;;;;4990575;28;25126;-73
2023/11/21 11:37:23;;;;;;;43.47;39.08;;;;;;;;;;4986625;28;25098;-70
2023/11/21 11:39:49;;;;;;;44.03;39.65;;;;;;;;;;4987339;28;25154;-69
2023/11/21 11:42:18;;;;;;;44.53;39.28;;;;;;;;;;4987516;28;25076;-70
2023/11/21 11:44:45;;;;;;;45.28;40.53;;;;;;;;;;4989761;28;25052;-70
2023/11/21 11:47:15;;;;;;;44.13;39.67;;;;;;;;;;4988035;28;25063;-70
2023/11/21 11:50:00;;;;;;;44.78;39.95;;;;;;;;;;4988884;28;25129;-69
2023/11/21 11:52:32;;;;;;;44.78;40.15;;;;;;;;;;4988712;28;25047;-70
2023/11/21 11:55:00;;;;;;;46.28;41.60;;;;;;;;;;4986818;28;25070;-71
2023/11/21 11:57:26;;;;;;;47.00;41.90;;;;;;;;;;4988681;28;25106;-72
2023/11/21 12:00:11;;;;;;;45.95;41.38;;;;;;;;;;4987047;28;25121;-71
2023/11/21 12:02:37;;;;;;;45.40;40.78;;;;;;;;;;4988063;28;25151;-70
2023/11/21 12:05:13;;;;;;;47.58;42.38;;;;;;;;;;4989044;28;25064;-70
2023/11/21 12:07:47;;;;;;;46.30;41.65;;;;;;;;;;4986828;28;25159;-70
2023/11/21 12:10:14;;;;;;;45.88;41.25;;;;;;;;;;4988049;28;25061;-72
2023/11/21 12:12:44;;;;;;;44.35;39.97;;;;;;;;;;4987641;28;25050;-70
2023/11/21 12:15:11;;;;;;;48.50;42.13;;;;;;;;;;4988997;28;25105;-70
2023/11/21 12:17:38;;;;;;;45.60;41.17;;;;;;;;;;4988319;28;25115;-70
2023/11/21 12:20:06;;;;;;;44.50;40.17;;;;;;;;;;4988685;28;25077;-69
2023/11/21 12:22:32;;;;;;;47.53;42.47;;;;;;;;;;4986430;28;25113;-70
2023/11/21 12:24:58;;;;;;;48.70;42.88;;;;;;;;;;4986569;28;25064;-72
2023/11/21 12:27:24;;;;;;;49.03;43.50;;;;;;;;;;4988473;28;25077;-70
2023/11/21 12:29:50;;;;;;;54.22;44.10;;;;;;;;;;4989161;28;25075;-71
2023/11/21 12:32:18;;;;;;;47.63;42.47;;;;;;;;;;4989506;28;25076;-71
2023/11/21 12:34:44;;;;;;;48.75;43.53;;;;;;;;;;4988580;28;25075;-70
2023/11/21 12:37:10;;;;;;;51.33;43.15;;;;;;;;;;4992748;28;25060;-71
2023/11/21 12:39:36;;;;;;;52.30;43.88;;;;;;;;;;4987575;28;25126;-70
2023/11/21 12:42:02;;;;;;;51.35;44.13;;;;;;;;;;4986481;28;25072;-69
2023/11/21 12:44:28;;;;;;;50.33;43.28;;;;;;;;;;4986036;28;25048;-70
2023/11/21 12:46:55;;;;;;;48.35;41.67;;;;;;;;;;4985418;28;25074;-70
2023/11/21 12:49:21;;;;;;;48.05;42.63;;;;;;;;;;4983987;28;25076;-69
2023/11/21 12:51:47;;;;;;;55.10;43.67;;;;;;;;;;4986192;28;25056;-71
2023/11/21 12:54:14;;;;;;;54.75;43.45;;;;;;;;;;4987776;28;25062;-72
2023/11/21 12:56:40;;;;;;;51.92;43.15;;;;;;;;;;4986669;28;25083;-70
2023/11/21 12:59:06;;;;;;;56.97;43.97;;;;;;;;;;4987344;28;25064;-70
2023/11/21 13:01:32;;;;;;;53.55;45.75;;;;;;;;;;4986324;28;25069;-70
2023/11/21 13:03:58;;;;;;;53.25;44.47;;;;;;;;;;4987347;28;25063;-71
2023/11/21 13:06:25;;;;;;;53.75;42.75;;;;;;;;;;4987199;28;25138;-71
2023/11/21 13:08:52;;;;;;;49.00;42.30;;;;;;;;;;4986978;28;25140;-70
2023/11/21 13:11:18;;;;;;;55.78;43.85;;;;;;;;;;4985033;28;25049;-71
2023/11/21 13:13:44;;;;;;;52.85;43.60;;;;;;;;;;4987082;28;25107;-70
2023/11/21 13:16:11;;;;;;;50.67;43.50;;;;;;;;;;4986523;28;25158;-71
2023/11/21 13:18:39;;;;;;;48.38;43.20;;;;;;;;;;4986602;28;25074;-70
2023/11/21 13:21:17;;;;;;;71.97;44.38;;;;;;;;;;4985621;28;25070;-74
2023/11/21 13:23:43;;;;;;;52.38;42.75;;;;;;;;;;4985904;28;25092;-71
2023/11/21 13:26:09;;;;;;;50.17;43.60;;;;;;;;;;4984242;28;25115;-70
2023/11/21 13:28:37;;;;;;;47.65;42.33;;;;;;;;;;4986730;28;25065;-72
2023/11/21 13:31:09;;;;;;;52.40;42.78;;;;;;;;;;4990035;28;25200;-70
2023/11/21 13:33:37;;;;;;;;;;;;;;;;;;4987952;28;25143;-71
2023/11/21 13:36:07;;;;;;;51.95;41.33;;;;;;;;;;4986717;28;25187;-71
2023/11/21 13:38:35;;;;;;;49.60;40.80;;;;;;;;;;4985962;28;25141;-71
2023/11/21 13:41:01;;;;;;;47.72;40.92;;;;;;;;;;4986867;28;25144;-70
2023/11/21 13:43:28;;;;;;;49.75;42.10;;;;;;;;;;4987143;28;25098;-69
2023/11/21 13:46:06;;;;;;;48.10;43.20;;;;;;;;;;4986891;28;25081;-73
2023/11/21 13:48:40;;;;;;;46.00;41.15;;;;;;;;;;4986821;28;25067;-71
2023/11/21 13:51:18;;;;;;;44.55;39.72;;;;;;;;;;4985704;28;25139;-70
2023/11/21 13:53:50;;;;;;;44.65;39.78;;;;;;;;;;4982850;28;25078;-71
2023/11/21 13:56:23;;;;;;;47.10;40.33;;;;;;;;;;4985860;28;25070;-70
2023/11/21 13:58:53;;;;;;;45.15;40.35;;;;;;;;;;4985869;28;25062;-71
2023/11/21 14:04:08;;;;;;;44.55;39.85;;;;;;;;;;4986324;28;25096;-71
2023/11/21 14:06:47;;;;;;;45.75;40.78;;;;;;;;;;4985499;28;25066;-72
2023/11/21 14:09:22;;;;;;;45.25;40.60;;;;;;;;;;4985331;28;25070;-71
2023/11/21 14:11:48;;;;;;;46.63;42.03;;;;;;;;;;4981602;28;25059;-71
2023/11/21 14:14:15;;;;;;;48.75;43.53;;;;;;;;;;4985611;28;25085;-72
2023/11/21 14:16:42;;;;;;;49.83;42.22;;;;;;;;;;4984690;28;25144;-71